Time;durP1;ratioP1;P1;durP2;ratioP2;P2;SDS_P1;SDS_P2;PMS_P1;PMS_P2;Temp;Humidity;BMP_temperature;BMP_pressure;BME280_temperature;BME280_humidity;BME280_pressure;Samples;Min_cycle;Max_cycle;Signal;HPM_P1;HPM_P2
2023/08/20 00:00:16;;;;;;;6.57;5.03;;;18.20;99.90;;;;;;5029330;28;20037;-83
2023/08/20 00:03:02;;;;;;;10.10;6.18;;;18.20;99.90;;;;;;5036484;28;20017;-83
2023/08/20 00:05:28;;;;;;;7.75;5.97;;;18.20;99.90;;;;;;5017250;28;20030;-84
2023/08/20 00:07:54;;;;;;;10.38;6.18;;;18.10;99.90;;;;;;5025432;28;20165;-84
2023/08/20 00:10:20;;;;;;;7.93;5.47;;;18.10;99.90;;;;;;5026658;28;20018;-84
2023/08/20 00:12:45;;;;;;;9.50;6.07;;;18.10;99.90;;;;;;5032115;28;20503;-81
2023/08/20 00:15:11;;;;;;;7.05;5.40;;;18.00;99.90;;;;;;5028768;28;20041;-83
2023/08/20 00:17:39;;;;;;;9.68;5.63;;;17.90;99.90;;;;;;5026086;28;20026;-83
2023/08/20 00:20:16;;;;;;;8.77;5.03;;;17.90;99.90;;;;;;5034515;28;20052;-82
2023/08/20 00:22:45;;;;;;;7.43;5.10;;;17.90;99.90;;;;;;5025527;28;20033;-81
2023/08/20 00:25:12;;;;;;;6.18;4.80;;;17.80;99.90;;;;;;5035554;28;20030;-82
2023/08/20 00:27:42;;;;;;;11.73;5.82;;;17.80;99.90;;;;;;5034690;28;20042;-83
2023/08/20 00:30:09;;;;;;;12.27;5.97;;;17.70;99.90;;;;;;5039895;28;20032;-83
2023/08/20 00:32:35;;;;;;;7.05;5.95;;;17.70;99.90;;;;;;5028083;28;20029;-82
2023/08/20 00:35:02;;;;;;;8.00;5.97;;;17.60;99.90;;;;;;5038670;28;20022;-84
2023/08/20 00:37:29;;;;;;;10.23;6.07;;;17.60;99.90;;;;;;5036071;28;20028;-82
2023/08/20 00:39:55;;;;;;;6.20;5.60;;;17.60;99.90;;;;;;5041923;28;20079;-83
2023/08/20 00:42:20;;;;;;;11.38;6.65;;;17.60;99.90;;;;;;5035535;28;20025;-84
2023/08/20 00:44:46;;;;;;;8.75;6.47;;;17.50;99.90;;;;;;5033894;28;20103;-83
2023/08/20 00:47:13;;;;;;;12.35;7.45;;;17.50;99.90;;;;;;5029212;28;20026;-82
2023/08/20 00:49:40;;;;;;;9.57;6.10;;;17.50;99.90;;;;;;5034204;28;20022;-83
2023/08/20 00:52:08;;;;;;;10.82;6.82;;;17.40;99.90;;;;;;5032219;28;20404;-84
2023/08/20 00:54:34;;;;;;;9.50;6.40;;;17.40;99.90;;;;;;5033660;28;20049;-83
2023/08/20 00:57:01;;;;;;;15.95;6.60;;;17.40;99.90;;;;;;5031526;28;20485;-83
2023/08/20 00:59:28;;;;;;;9.93;6.00;;;17.30;99.90;;;;;;5031604;28;20029;-82
2023/08/20 01:01:53;;;;;;;8.35;5.88;;;17.30;99.90;;;;;;5026728;28;20034;-82
2023/08/20 01:04:19;;;;;;;8.77;6.32;;;17.30;99.90;;;;;;5037338;28;20033;-83
2023/08/20 01:07:09;;;;;;;10.98;5.15;;;17.20;99.90;;;;;;5037668;28;20844;-82
2023/08/20 01:10:01;;;;;;;9.05;6.03;;;17.20;99.90;;;;;;5041152;28;20024;-83
2023/08/20 01:12:29;;;;;;;8.77;5.88;;;17.10;99.90;;;;;;5037432;28;20032;-81
2023/08/20 01:14:54;;;;;;;6.38;5.75;;;17.20;99.90;;;;;;5040787;28;20026;-82
2023/08/20 01:17:20;;;;;;;11.20;6.65;;;17.10;99.90;;;;;;5036378;28;20033;-83
2023/08/20 01:19:46;;;;;;;7.28;5.60;;;17.10;99.90;;;;;;5043532;28;20021;-83
2023/08/20 01:22:44;;;;;;;7.28;5.05;;;17.10;99.90;;;;;;5035679;28;20029;-82
2023/08/20 01:25:40;;;;;;;10.05;6.22;;;17.00;99.90;;;;;;5032047;28;20033;-83
2023/08/20 01:28:23;;;;;;;8.38;6.55;;;16.90;99.90;;;;;;5029417;28;20021;-81
2023/08/20 01:30:49;;;;;;;6.03;4.97;;;16.90;99.90;;;;;;5039737;28;20026;-82
2023/08/20 01:33:15;;;;;;;6.45;5.03;;;16.90;99.90;;;;;;5040560;28;20093;-83
2023/08/20 01:35:41;;;;;;;9.15;5.88;;;16.90;99.90;;;;;;5034454;28;20022;-83
2023/08/20 01:38:07;;;;;;;8.18;5.28;;;16.80;99.90;;;;;;5039985;28;20056;-81
2023/08/20 01:40:33;;;;;;;7.53;4.47;;;16.80;99.90;;;;;;5038931;28;20036;-82
2023/08/20 01:42:59;;;;;;;9.48;5.93;;;16.80;99.90;;;;;;5036011;28;20065;-82
2023/08/20 01:45:26;;;;;;;7.10;5.72;;;16.70;99.90;;;;;;5040661;28;20029;-83
2023/08/20 01:47:51;;;;;;;10.57;6.20;;;16.70;99.90;;;;;;5034918;28;20073;-81
2023/08/20 01:50:17;;;;;;;6.07;4.05;;;16.70;99.90;;;;;;5040677;28;20022;-81
2023/08/20 01:52:43;;;;;;;5.18;4.68;;;16.70;99.90;;;;;;5035421;28;20036;-82
2023/08/20 01:55:08;;;;;;;7.10;5.70;;;16.60;99.90;;;;;;5039444;28;20033;-82
2023/08/20 01:57:34;;;;;;;7.28;5.50;;;16.60;99.90;;;;;;5035398;28;20033;-83
2023/08/20 01:59:59;;;;;;;9.85;5.47;;;16.50;99.90;;;;;;5033812;28;20094;-82
2023/08/20 02:02:25;;;;;;;12.38;7.28;;;16.50;99.90;;;;;;5038564;28;20081;-82
2023/08/20 02:04:51;;;;;;;12.00;6.22;;;16.50;99.90;;;;;;5031477;28;20022;-82
2023/08/20 02:07:17;;;;;;;10.60;8.90;;;16.50;99.90;;;;;;5040142;28;20026;-82
2023/08/20 02:09:42;;;;;;;8.13;7.05;;;16.50;99.90;;;;;;5033795;28;20029;-82
2023/08/20 02:12:08;;;;;;;11.85;7.30;;;16.50;99.90;;;;;;5037182;28;20064;-82
2023/08/20 02:14:34;;;;;;;12.15;8.77;;;16.50;99.90;;;;;;5034255;28;20041;-83
2023/08/20 02:17:03;;;;;;;10.60;7.07;;;16.50;99.90;;;;;;5028930;28;20030;-82
2023/08/20 02:19:29;;;;;;;10.93;8.20;;;16.50;99.90;;;;;;5035600;28;20096;-82
2023/08/20 02:21:54;;;;;;;9.38;8.10;;;16.50;99.90;;;;;;5032025;28;20213;-83
2023/08/20 02:24:20;;;;;;;11.52;8.38;;;16.50;99.90;;;;;;5035626;28;20103;-81
2023/08/20 02:26:46;;;;;;;8.32;7.32;;;16.40;99.90;;;;;;5032536;28;20034;-82
2023/08/20 02:29:11;;;;;;;8.32;6.70;;;16.40;99.90;;;;;;5033143;28;20052;-82
2023/08/20 02:31:37;;;;;;;8.20;7.40;;;16.40;99.90;;;;;;5026548;28;20125;-82
2023/08/20 02:34:03;;;;;;;8.80;7.07;;;16.50;99.90;;;;;;5036144;28;20022;-82
2023/08/20 02:36:28;;;;;;;9.90;8.55;;;16.40;99.90;;;;;;5031997;28;20044;-82
2023/08/20 02:38:54;;;;;;;7.93;6.47;;;16.40;99.90;;;;;;5040371;28;20056;-83
2023/08/20 02:41:19;;;;;;;10.60;7.88;;;16.40;99.90;;;;;;5026368;28;20366;-83
2023/08/20 02:43:45;;;;;;;10.27;7.85;;;16.40;99.90;;;;;;5032504;28;20066;-82
2023/08/20 02:46:11;;;;;;;9.68;8.60;;;16.40;99.90;;;;;;5032380;28;20052;-83
2023/08/20 02:48:37;;;;;;;9.20;8.25;;;16.40;99.90;;;;;;5032121;28;20036;-82
2023/08/20 02:51:02;;;;;;;10.13;9.02;;;16.40;99.90;;;;;;5031967;28;20029;-83
2023/08/20 02:53:28;;;;;;;9.10;7.78;;;16.40;99.90;;;;;;5035932;28;20022;-82
2023/08/20 02:55:54;;;;;;;10.18;8.07;;;16.30;99.90;;;;;;5027238;28;20026;-82
2023/08/20 02:58:20;;;;;;;7.63;6.90;;;16.30;99.90;;;;;;5035411;28;20017;-84
2023/08/20 03:00:45;;;;;;;7.47;6.57;;;16.30;99.90;;;;;;5028202;28;20034;-83
2023/08/20 03:03:12;;;;;;;10.32;7.70;;;16.30;99.90;;;;;;5029099;28;20471;-82
2023/08/20 03:05:37;;;;;;;10.15;9.02;;;16.30;99.90;;;;;;5035138;28;20056;-81
2023/08/20 03:08:03;;;;;;;7.50;6.70;;;16.30;99.90;;;;;;5028488;28;20018;-82
2023/08/20 03:10:30;;;;;;;7.88;7.07;;;16.20;99.90;;;;;;5029812;28;20051;-82
2023/08/20 03:12:55;;;;;;;9.02;8.10;;;16.20;99.90;;;;;;5027694;28;20032;-83
2023/08/20 03:15:21;;;;;;;8.80;7.88;;;16.20;99.90;;;;;;5033473;28;20030;-82
2023/08/20 03:17:46;;;;;;;7.80;7.00;;;16.20;99.90;;;;;;5025555;28;20017;-81
2023/08/20 03:20:12;;;;;;;9.27;8.25;;;16.20;99.90;;;;;;5022482;28;20034;-82
2023/08/20 03:22:38;;;;;;;8.63;7.55;;;16.20;99.90;;;;;;5031422;28;20022;-82
2023/08/20 03:25:05;;;;;;;10.07;8.40;;;16.10;99.90;;;;;;5022132;28;20097;-82
2023/08/20 03:27:30;;;;;;;10.27;7.82;;;16.10;99.90;;;;;;5026117;28;20273;-82
2023/08/20 03:29:56;;;;;;;10.23;9.15;;;16.20;99.90;;;;;;5033279;28;20109;-83
2023/08/20 03:32:22;;;;;;;8.73;7.82;;;16.10;99.90;;;;;;5017213;28;20069;-81
2023/08/20 03:34:47;;;;;;;8.85;7.43;;;16.20;99.90;;;;;;5029731;28;20037;-82
2023/08/20 03:37:13;;;;;;;9.88;8.27;;;16.20;99.90;;;;;;5024589;28;20115;-83
2023/08/20 03:39:38;;;;;;;8.90;8.00;;;16.10;99.90;;;;;;5032904;28;20030;-82
2023/08/20 03:42:04;;;;;;;7.90;7.10;;;16.20;99.90;;;;;;5025252;28;20498;-82
2023/08/20 03:44:31;;;;;;;7.50;6.40;;;16.20;99.90;;;;;;5031350;28;20025;-82
2023/08/20 03:46:56;;;;;;;8.38;7.57;;;16.20;99.90;;;;;;5019714;28;20038;-82
2023/08/20 03:49:22;;;;;;;10.00;7.72;;;16.20;99.90;;;;;;5016287;28;20453;-82
2023/08/20 03:51:48;;;;;;;10.65;8.43;;;16.10;99.90;;;;;;5024510;28;20029;-82
2023/08/20 03:54:13;;;;;;;6.95;6.25;;;16.20;99.90;;;;;;5015465;28;20057;-82
2023/08/20 03:56:39;;;;;;;8.32;7.47;;;16.10;99.90;;;;;;5026428;28;20113;-83
2023/08/20 03:59:04;;;;;;;9.73;7.90;;;16.10;99.90;;;;;;5019036;28;20110;-83
2023/08/20 04:01:30;;;;;;;9.95;8.95;;;16.10;99.90;;;;;;5016049;28;20042;-83
2023/08/20 04:03:55;;;;;;;7.10;6.35;;;16.10;99.90;;;;;;5021394;28;20130;-82
2023/08/20 04:06:21;;;;;;;8.68;7.75;;;16.10;99.90;;;;;;5018048;28;20029;-82
2023/08/20 04:08:47;;;;;;;8.88;7.97;;;16.00;99.90;;;;;;5021724;28;20057;-83
2023/08/20 04:11:12;;;;;;;7.40;6.70;;;16.00;99.90;;;;;;5021742;28;20742;-82
2023/08/20 04:13:39;;;;;;;7.57;6.88;;;16.00;99.90;;;;;;5028887;28;20043;-82
2023/08/20 04:16:05;;;;;;;7.70;6.90;;;16.00;99.90;;;;;;5012553;28;20701;-83
2023/08/20 04:18:30;;;;;;;8.02;7.13;;;16.00;99.90;;;;;;5019071;28;20022;-82
2023/08/20 04:20:57;;;;;;;9.43;8.32;;;16.00;99.90;;;;;;5022659;28;20018;-82
2023/08/20 04:23:23;;;;;;;8.80;7.90;;;16.00;99.90;;;;;;5016945;28;20021;-82
2023/08/20 04:25:48;;;;;;;7.35;6.65;;;16.00;99.90;;;;;;5020640;28;20040;-83
2023/08/20 04:28:14;;;;;;;7.82;7.03;;;16.00;99.90;;;;;;5018086;28;20041;-82
2023/08/20 04:30:39;;;;;;;6.88;6.28;;;16.00;99.90;;;;;;5025193;28;20045;-83
2023/08/20 04:33:05;;;;;;;6.82;6.00;;;16.00;99.90;;;;;;5018024;28;20034;-84
2023/08/20 04:35:31;;;;;;;7.55;6.75;;;16.00;99.90;;;;;;5017491;28;20033;-83
2023/08/20 04:37:57;;;;;;;8.23;7.13;;;16.00;99.90;;;;;;5027266;28;20377;-83
2023/08/20 04:40:23;;;;;;;6.82;6.22;;;16.00;99.90;;;;;;5017953;28;20628;-83
2023/08/20 04:42:49;;;;;;;6.18;5.55;;;16.00;99.90;;;;;;5025939;28;20057;-83
2023/08/20 04:45:17;;;;;;;6.13;5.53;;;16.00;99.90;;;;;;5016376;28;20116;-83
2023/08/20 04:47:43;;;;;;;6.45;5.93;;;16.00;99.90;;;;;;5011640;28;20542;-84
2023/08/20 04:50:09;;;;;;;6.30;5.70;;;16.00;99.90;;;;;;5018862;28;20025;-84
2023/08/20 04:52:34;;;;;;;8.65;7.07;;;16.00;99.90;;;;;;5019573;28;20030;-82
2023/08/20 04:55:01;;;;;;;6.88;6.20;;;16.00;99.90;;;;;;5019569;28;20029;-83
2023/08/20 04:57:27;;;;;;;7.07;6.45;;;16.10;99.90;;;;;;5019684;28;20048;-83
2023/08/20 04:59:52;;;;;;;6.22;5.63;;;16.10;99.90;;;;;;5020184;28;20072;-83
2023/08/20 05:02:18;;;;;;;7.38;6.68;;;16.10;99.90;;;;;;5018498;28;20030;-83
2023/08/20 05:04:44;;;;;;;6.43;5.85;;;16.10;99.90;;;;;;5018543;28;20729;-83
2023/08/20 05:07:09;;;;;;;7.55;6.85;;;16.10;99.90;;;;;;5016719;28;20384;-83
2023/08/20 05:09:35;;;;;;;6.47;5.93;;;16.10;99.90;;;;;;5019139;28;20136;-83
2023/08/20 05:12:01;;;;;;;5.93;5.43;;;16.20;99.90;;;;;;5020679;28;20345;-81
2023/08/20 05:14:27;;;;;;;8.77;7.25;;;16.20;99.90;;;;;;5019745;28;20022;-82
2023/08/20 05:16:52;;;;;;;7.72;6.97;;;16.20;99.90;;;;;;5020690;28;20025;-81
2023/08/20 05:19:18;;;;;;;9.10;7.68;;;16.20;99.90;;;;;;5020849;28;20029;-83
2023/08/20 05:21:43;;;;;;;8.23;7.43;;;16.30;99.90;;;;;;5022288;28;20045;-82
2023/08/20 05:24:09;;;;;;;9.93;8.65;;;16.20;99.90;;;;;;5018739;28;20028;-81
2023/08/20 05:26:35;;;;;;;10.73;7.38;;;16.30;99.90;;;;;;5018145;28;20026;-82
2023/08/20 05:29:00;;;;;;;9.15;8.07;;;16.30;99.90;;;;;;5019571;28;20036;-82
2023/08/20 05:31:26;;;;;;;8.77;7.90;;;16.30;99.90;;;;;;5018245;28;20376;-82
2023/08/20 05:33:51;;;;;;;8.85;8.00;;;16.40;99.90;;;;;;5018541;28;20120;-83
2023/08/20 05:36:17;;;;;;;8.65;7.85;;;16.40;99.90;;;;;;5019177;28;20259;-83
2023/08/20 05:38:43;;;;;;;9.00;7.97;;;16.40;99.90;;;;;;5019297;28;20077;-83
2023/08/20 05:41:09;;;;;;;8.90;7.97;;;16.40;99.90;;;;;;5020236;28;20125;-83
2023/08/20 05:43:36;;;;;;;9.35;8.25;;;16.40;99.90;;;;;;5024387;28;20397;-84
2023/08/20 05:46:02;;;;;;;9.80;7.30;;;16.50;99.90;;;;;;5023873;28;20022;-81
2023/08/20 05:48:28;;;;;;;10.77;8.05;;;16.50;99.90;;;;;;5024961;28;20026;-84
2023/08/20 05:50:53;;;;;;;9.30;8.32;;;16.50;99.90;;;;;;5026358;28;20021;-82
2023/08/20 05:53:19;;;;;;;9.00;8.10;;;16.60;99.90;;;;;;5032592;28;20025;-83
2023/08/20 05:55:45;;;;;;;10.88;8.55;;;16.70;99.90;;;;;;5024143;28;20075;-83
2023/08/20 05:58:11;;;;;;;8.90;8.10;;;16.70;99.90;;;;;;5027917;28;20036;-82
2023/08/20 06:00:36;;;;;;;9.07;8.18;;;16.80;99.90;;;;;;5025009;28;20026;-82
2023/08/20 06:03:02;;;;;;;9.50;8.52;;;16.80;99.90;;;;;;5030786;28;20507;-82
2023/08/20 06:05:28;;;;;;;11.25;8.48;;;16.90;99.90;;;;;;5031816;28;20116;-82
2023/08/20 06:07:53;;;;;;;10.32;8.27;;;17.00;99.90;;;;;;5023216;28;20021;-83
2023/08/20 06:10:19;;;;;;;9.93;8.48;;;17.00;99.90;;;;;;5030499;28;20035;-83
2023/08/20 06:12:44;;;;;;;10.95;8.82;;;17.00;99.90;;;;;;5023760;28;20025;-84
2023/08/20 06:15:10;;;;;;;13.13;9.05;;;17.10;99.90;;;;;;5030334;28;20040;-83
2023/08/20 06:17:36;;;;;;;9.80;8.30;;;17.10;99.90;;;;;;5029460;28;20053;-82
2023/08/20 06:20:05;;;;;;;10.30;7.28;;;17.20;99.90;;;;;;5031719;28;20017;-83
2023/08/20 06:22:31;;;;;;;11.07;7.68;;;17.30;99.90;;;;;;5029607;28;20025;-83
2023/08/20 06:24:57;;;;;;;10.02;8.10;;;17.30;99.90;;;;;;5032869;28;20041;-83
2023/08/20 06:27:23;;;;;;;8.70;7.80;;;17.40;99.90;;;;;;5031376;28;20030;-83
2023/08/20 06:29:48;;;;;;;8.00;7.20;;;17.40;99.90;;;;;;5034617;28;20033;-83
2023/08/20 06:32:14;;;;;;;9.05;7.82;;;17.40;99.90;;;;;;5034030;28;20041;-83
2023/08/20 06:34:40;;;;;;;13.18;8.48;;;17.50;99.90;;;;;;5032425;28;20048;-84
2023/08/20 06:37:05;;;;;;;12.25;8.35;;;17.50;99.90;;;;;;5035993;28;20109;-83
2023/08/20 06:39:31;;;;;;;13.93;8.40;;;17.60;99.90;;;;;;5037755;28;20029;-83
2023/08/20 06:41:59;;;;;;;8.90;7.63;;;17.70;99.90;;;;;;5036758;28;20067;-83
2023/08/20 06:44:25;;;;;;;13.82;8.23;;;17.80;99.90;;;;;;5039749;28;20029;-83
2023/08/20 06:46:50;;;;;;;8.32;7.35;;;17.90;99.90;;;;;;5031968;28;20037;-83
2023/08/20 06:49:16;;;;;;;10.45;8.27;;;17.90;99.90;;;;;;5030721;28;20090;-84
2023/08/20 06:51:41;;;;;;;13.25;9.30;;;17.90;99.90;;;;;;5039915;28;20369;-84
2023/08/20 06:54:07;;;;;;;10.82;8.80;;;18.00;99.90;;;;;;5026005;28;20021;-84
2023/08/20 06:56:33;;;;;;;9.88;7.95;;;18.10;99.90;;;;;;5039481;28;20626;-83
2023/08/20 06:59:00;;;;;;;9.07;8.07;;;18.10;99.90;;;;;;5031746;28;20401;-84
2023/08/20 07:01:25;;;;;;;10.55;8.15;;;18.20;99.90;;;;;;5030348;28;20555;-84
2023/08/20 07:03:51;;;;;;;8.80;6.90;;;18.40;99.90;;;;;;5026213;28;20053;-85
2023/08/20 07:06:18;;;;;;;11.02;8.75;;;18.50;99.90;;;;;;5024550;28;20065;-84
2023/08/20 07:08:44;;;;;;;9.25;7.70;;;18.50;99.90;;;;;;5026300;28;20107;-84
2023/08/20 07:11:10;;;;;;;17.55;9.73;;;18.60;99.90;;;;;;5018431;28;20026;-82
2023/08/20 07:13:36;;;;;;;11.10;7.18;;;18.80;99.90;;;;;;5018647;28;20018;-84
2023/08/20 07:16:02;;;;;;;8.02;7.22;;;18.90;99.90;;;;;;5019470;28;20117;-84
2023/08/20 07:18:28;;;;;;;11.60;8.30;;;19.00;99.90;;;;;;5018679;28;20058;-85
2023/08/20 07:20:55;;;;;;;10.27;7.68;;;19.20;99.90;;;;;;5030099;28;20069;-84
2023/08/20 07:23:21;;;;;;;10.23;7.43;;;19.30;99.90;;;;;;5017060;28;20044;-85
2023/08/20 07:25:47;;;;;;;7.70;6.70;;;19.40;99.90;;;;;;5022945;28;20022;-86
2023/08/20 07:28:13;;;;;;;8.90;7.25;;;19.60;99.90;;;;;;5017540;28;20018;-84
2023/08/20 07:30:38;;;;;;;7.22;6.47;;;19.60;99.90;;;;;;5024704;28;20431;-84
2023/08/20 07:33:06;;;;;;;11.77;6.95;;;19.80;99.90;;;;;;5017701;28;20026;-85
2023/08/20 07:35:32;;;;;;;8.60;5.97;;;19.90;99.90;;;;;;5015689;28;20052;-84
2023/08/20 07:37:57;;;;;;;7.47;6.63;;;20.00;99.90;;;;;;5021298;28;20022;-85
2023/08/20 07:40:23;;;;;;;9.40;5.35;;;20.10;99.90;;;;;;5015533;28;20057;-83
2023/08/20 07:42:50;;;;;;;7.38;6.45;;;20.10;99.90;;;;;;5022937;28;20029;-83
2023/08/20 07:45:16;;;;;;;12.73;6.18;;;20.30;99.90;;;;;;5007203;28;20029;-84
2023/08/20 07:47:42;;;;;;;7.55;6.00;;;20.30;99.90;;;;;;5018043;28;20036;-83
2023/08/20 07:50:08;;;;;;;10.98;6.45;;;20.40;99.90;;;;;;5016428;28;20040;-83
2023/08/20 07:52:34;;;;;;;10.77;6.82;;;20.60;99.90;;;;;;5018150;28;20540;-85
2023/08/20 07:54:59;;;;;;;9.13;5.65;;;20.70;99.90;;;;;;5017111;28;20033;-84
2023/08/20 07:57:25;;;;;;;7.38;5.50;;;20.70;99.90;;;;;;5017463;28;20033;-83
2023/08/20 07:59:51;;;;;;;9.30;5.75;;;20.80;99.90;;;;;;5019643;28;20389;-85
2023/08/20 08:02:17;;;;;;;7.82;5.80;;;20.90;99.90;;;;;;5017296;28;20030;-84
2023/08/20 08:04:43;;;;;;;8.05;5.47;;;21.00;99.90;;;;;;5020292;28;20029;-83
2023/08/20 08:07:11;;;;;;;8.10;4.90;;;21.20;99.90;;;;;;5019325;28;20309;-85
2023/08/20 08:09:37;;;;;;;6.80;4.30;;;21.40;99.90;;;;;;5016911;28;20095;-83
2023/08/20 08:12:04;;;;;;;4.93;3.97;;;21.40;99.90;;;;;;5020963;28;20037;-85
2023/08/20 08:14:30;;;;;;;6.47;4.57;;;21.60;99.90;;;;;;5020823;28;20030;-82
2023/08/20 08:16:56;;;;;;;7.15;5.10;;;21.60;99.90;;;;;;5043076;28;20112;-82
2023/08/20 08:19:21;;;;;;;6.82;4.93;;;21.70;99.90;;;;;;5038849;28;20077;-82
2023/08/20 08:21:47;;;;;;;7.13;6.38;;;21.70;99.90;;;;;;5027190;28;20036;-82
2023/08/20 08:24:14;;;;;;;6.95;5.65;;;21.60;99.90;;;;;;5022348;28;20384;-83
2023/08/20 08:26:40;;;;;;;8.32;5.70;;;21.70;99.90;;;;;;5018636;28;20084;-83
2023/08/20 08:29:08;;;;;;;5.63;4.05;;;21.60;99.90;;;;;;5017172;28;20025;-84
2023/08/20 08:31:34;;;;;;;5.47;4.28;;;21.70;99.90;;;;;;5013053;28;20033;-85
2023/08/20 08:34:01;;;;;;;6.20;4.72;;;21.80;99.90;;;;;;5016607;28;20021;-84
2023/08/20 08:36:27;;;;;;;5.47;3.55;;;21.90;99.90;;;;;;5017308;28;20051;-82
2023/08/20 08:38:53;;;;;;;5.00;3.47;;;21.90;99.90;;;;;;5020243;28;20358;-82
2023/08/20 08:41:23;;;;;;;3.50;2.97;;;21.80;99.90;;;;;;5019746;28;20036;-82
2023/08/20 08:43:49;;;;;;;4.63;3.53;;;21.80;99.90;;;;;;5018565;28;20375;-83
2023/08/20 08:46:16;;;;;;;4.70;3.50;;;21.80;99.90;;;;;;5019688;28;20025;-82
2023/08/20 08:48:46;;;;;;;7.53;4.38;;;21.90;99.90;;;;;;5018491;28;20113;-84
2023/08/20 08:51:12;;;;;;;6.88;3.20;;;22.00;99.90;;;;;;5021205;28;20033;-83
2023/08/20 08:53:38;;;;;;;7.45;3.70;;;22.00;99.90;;;;;;5018581;28;20142;-85
2023/08/20 08:56:05;;;;;;;8.32;3.53;;;22.10;99.90;;;;;;5022699;28;20041;-85
2023/08/20 08:58:32;;;;;;;5.10;3.35;;;22.00;99.90;;;;;;5017849;28;20028;-86
2023/08/20 09:00:58;;;;;;;7.03;2.95;;;22.10;99.90;;;;;;5008515;28;20440;-85
2023/08/20 09:03:24;;;;;;;6.10;2.42;;;22.00;99.90;;;;;;5022983;28;20088;-84
2023/08/20 09:05:55;;;;;;;7.30;2.67;;;22.00;99.90;;;;;;5013177;28;20120;-85
2023/08/20 09:08:27;;;;;;;4.00;2.65;;;22.00;99.90;;;;;;5024896;28;20105;-84
2023/08/20 09:10:55;;;;;;;7.75;3.13;;;22.00;99.90;;;;;;5010706;28;20083;-85
2023/08/20 09:13:41;;;;;;;4.50;2.90;;;22.10;99.90;;;;;;5023682;28;20399;-85
2023/08/20 09:16:11;;;;;;;5.50;2.78;;;22.10;99.90;;;;;;5010442;28;20030;-84
2023/08/20 09:18:44;;;;;;;7.10;3.15;;;22.10;99.90;;;;;;5018295;28;20030;-83
2023/08/20 09:21:11;;;;;;;2.63;2.20;;;22.10;99.90;;;;;;5014636;28;20032;-84
2023/08/20 09:23:37;;;;;;;5.38;2.38;;;22.00;99.90;;;;;;5010127;28;20101;-84
2023/08/20 09:26:05;;;;;;;5.13;3.03;;;22.00;99.90;;;;;;5023135;28;20071;-83
2023/08/20 09:28:47;;;;;;;4.70;2.60;;;22.10;99.90;;;;;;5019363;28;20133;-85
2023/08/20 09:31:13;;;;;;;5.32;2.60;;;22.10;99.90;;;;;;5019355;28;20563;-84
2023/08/20 09:33:55;;;;;;;6.22;2.53;;;22.20;99.90;;;;;;5018814;28;20440;-84
2023/08/20 09:36:34;;;;;;;3.45;2.47;;;22.30;99.90;;;;;;5015521;28;20026;-80
2023/08/20 09:39:00;;;;;;;3.95;2.28;;;22.30;99.90;;;;;;5008354;28;20021;-83
2023/08/20 09:41:26;;;;;;;3.33;2.30;;;22.30;99.90;;;;;;5019167;28;20025;-82
2023/08/20 09:43:57;;;;;;;6.53;2.70;;;22.20;99.90;;;;;;5015400;28;20022;-84
2023/08/20 09:46:25;;;;;;;8.13;2.67;;;22.30;99.90;;;;;;5025671;28;20038;-84
2023/08/20 09:48:54;;;;;;;3.42;2.00;;;22.30;99.90;;;;;;5017273;28;20083;-85
2023/08/20 09:51:26;;;;;;;6.07;2.38;;;22.40;99.90;;;;;;5022034;28;20041;-82
2023/08/20 09:54:29;;;;;;;5.00;1.85;;;22.50;99.90;;;;;;5007229;28;20033;-84
2023/08/20 09:57:00;;;;;;;5.60;1.80;;;22.50;99.90;;;;;;4982477;28;20065;-82
2023/08/20 09:59:26;;;;;;;5.50;2.15;;;22.50;99.90;;;;;;5021697;28;20044;-84
2023/08/20 10:01:53;;;;;;;6.13;2.63;;;22.40;99.90;;;;;;5021085;28;20052;-83
2023/08/20 10:04:21;;;;;;;5.53;1.83;;;22.40;99.90;;;;;;5024772;28;20028;-81
2023/08/20 10:06:47;;;;;;;7.13;2.00;;;22.30;99.90;;;;;;5016159;28;20049;-84
2023/08/20 10:09:14;;;;;;;2.75;1.30;;;22.30;99.90;;;;;;5023341;28;20496;-83
2023/08/20 10:11:40;;;;;;;4.32;2.25;;;22.30;99.90;;;;;;5015071;28;20576;-84
2023/08/20 10:14:06;;;;;;;5.07;1.83;;;22.30;99.90;;;;;;5022252;28;20116;-83
2023/08/20 10:16:33;;;;;;;4.60;2.20;;;22.30;99.90;;;;;;5016599;28;20104;-82
2023/08/20 10:19:05;;;;;;;5.80;1.95;;;22.40;99.90;;;;;;5038837;28;20017;-82
2023/08/20 10:21:32;;;;;;;6.43;2.00;;;22.40;99.90;;;;;;5021368;28;20509;-85
2023/08/20 10:24:02;;;;;;;5.82;2.20;;;22.40;99.90;;;;;;5018293;28;20033;-83
2023/08/20 10:26:28;;;;;;;5.97;2.40;;;22.50;99.90;;;;;;5023368;28;20034;-83
2023/08/20 10:29:32;;;;;;;4.32;2.15;;;22.50;99.90;;;;;;5030239;28;20112;-82
2023/08/20 10:31:58;;;;;;;6.75;2.10;;;22.60;99.90;;;;;;5032477;28;20669;-83
2023/08/20 10:34:35;;;;;;;4.07;2.08;;;22.70;99.90;;;;;;5017152;28;20022;-83
2023/08/20 10:37:04;;;;;;;3.92;1.95;;;22.80;99.90;;;;;;5020858;28;20053;-84
2023/08/20 10:39:29;;;;;;;5.28;2.08;;;22.80;99.90;;;;;;5019064;28;20045;-83
2023/08/20 10:42:14;;;;;;;5.00;2.53;;;22.80;99.90;;;;;;5017725;28;20492;-84
2023/08/20 10:45:05;;;;;;;4.57;2.22;;;22.80;99.90;;;;;;5021031;28;20018;-84
2023/08/20 10:47:48;;;;;;;6.82;2.55;;;22.80;99.90;;;;;;5012766;28;20128;-81
2023/08/20 10:50:18;;;;;;;5.60;2.05;;;22.90;99.90;;;;;;5021062;28;20496;-81
2023/08/20 10:52:55;;;;;;;4.30;2.22;;;22.80;99.90;;;;;;5019627;28;20169;-84
2023/08/20 10:55:24;;;;;;;3.25;1.70;;;22.90;99.90;;;;;;5023256;28;20026;-83
2023/08/20 10:57:57;;;;;;;3.20;1.50;;;22.90;99.90;;;;;;5011225;28;20080;-82
2023/08/20 11:00:23;;;;;;;4.03;2.22;;;22.90;99.90;;;;;;5021412;28;20038;-82
2023/08/20 11:02:49;;;;;;;4.15;2.00;;;23.00;99.90;;;;;;5018122;28;20033;-81
2023/08/20 11:05:21;;;;;;;5.88;2.33;;;23.00;99.90;;;;;;5023282;28;20036;-81
2023/08/20 11:07:48;;;;;;;2.28;1.58;;;23.10;99.90;;;;;;5019060;28;20025;-82
2023/08/20 11:10:17;;;;;;;5.40;2.08;;;23.10;99.90;;;;;;5012430;28;20076;-81
2023/08/20 11:12:46;;;;;;;4.53;2.05;;;23.10;99.90;;;;;;5021085;28;20083;-81
2023/08/20 11:15:12;;;;;;;3.58;2.08;;;23.10;99.90;;;;;;5018904;28;20647;-82
2023/08/20 11:17:48;;;;;;;5.15;1.83;;;23.20;99.90;;;;;;5021205;28;20108;-83
2023/08/20 11:20:14;;;;;;;;;;;23.20;99.90;;;;;;5019141;28;20018;-81
2023/08/20 11:22:40;;;;;;;10.82;2.05;;;23.20;99.90;;;;;;5020034;28;19952;-81
2023/08/20 11:25:12;;;;;;;5.82;1.95;;;23.30;99.90;;;;;;5020114;28;20501;-82
2023/08/20 11:27:40;;;;;;;6.10;2.45;;;23.40;99.90;;;;;;5019887;28;20037;-83
2023/08/20 11:30:07;;;;;;;3.30;1.70;;;23.40;99.90;;;;;;5018833;28;20053;-83
2023/08/20 11:32:33;;;;;;;1.98;1.42;;;23.40;99.90;;;;;;5018494;28;20040;-82
2023/08/20 11:34:59;;;;;;;4.85;1.88;;;23.40;99.90;;;;;;5020480;28;20408;-84
2023/08/20 11:37:25;;;;;;;4.63;1.75;;;23.40;99.90;;;;;;5019515;28;20021;-83
2023/08/20 11:39:51;;;;;;;3.42;2.20;;;23.30;99.90;;;;;;5020485;28;20029;-82
2023/08/20 11:42:17;;;;;;;5.78;2.55;;;23.30;99.90;;;;;;5021430;28;20437;-83
2023/08/20 11:44:45;;;;;;;4.88;1.90;;;23.30;99.90;;;;;;5021673;28;20069;-83
2023/08/20 11:47:18;;;;;;;7.18;1.85;;;23.40;99.90;;;;;;5023298;28;20496;-84
2023/08/20 11:49:44;;;;;;;3.38;2.20;;;23.40;99.90;;;;;;5016111;28;20033;-83
2023/08/20 11:52:10;;;;;;;4.15;1.60;;;23.40;99.90;;;;;;5019539;28;20022;-84
2023/08/20 11:54:36;;;;;;;3.33;2.03;;;23.40;99.90;;;;;;5017377;28;20110;-81
2023/08/20 11:57:03;;;;;;;5.63;2.05;;;23.50;99.90;;;;;;5019375;28;20495;-85
2023/08/20 11:59:29;;;;;;;2.50;1.90;;;23.60;99.90;;;;;;5019940;28;20033;-81
2023/08/20 12:02:00;;;;;;;7.13;1.75;;;23.60;99.90;;;;;;5021570;28;20034;-82
2023/08/20 12:04:27;;;;;;;2.75;1.92;;;23.70;99.90;;;;;;5017701;28;20022;-81
2023/08/20 12:07:08;;;;;;;8.00;1.85;;;23.70;99.90;;;;;;5019934;28;20018;-83
2023/08/20 12:09:34;;;;;;;6.05;2.08;;;23.80;99.90;;;;;;5019677;28;20059;-84
2023/08/20 12:12:01;;;;;;;3.30;1.70;;;23.70;99.90;;;;;;5018943;28;20025;-81
2023/08/20 12:14:26;;;;;;;4.13;1.52;;;23.70;99.90;;;;;;5017912;28;20108;-83
2023/08/20 12:16:54;;;;;;;5.30;1.63;;;23.80;99.90;;;;;;5018750;28;20079;-82
2023/08/20 12:19:20;;;;;;;3.17;2.00;;;23.80;99.90;;;;;;5018881;28;20370;-84
2023/08/20 12:21:46;;;;;;;3.80;1.50;;;23.70;99.90;;;;;;5015387;28;20018;-84
2023/08/20 12:24:12;;;;;;;3.72;1.50;;;23.70;99.90;;;;;;5020529;28;20154;-82
2023/08/20 12:26:38;;;;;;;7.00;1.65;;;23.80;99.90;;;;;;5021102;28;20081;-82
2023/08/20 12:29:04;;;;;;;2.03;1.20;;;23.80;99.90;;;;;;5020762;28;20025;-82
2023/08/20 12:31:29;;;;;;;3.40;1.45;;;23.90;99.90;;;;;;5020538;28;20223;-81
2023/08/20 12:33:55;;;;;;;3.13;1.40;;;23.90;99.90;;;;;;5016543;28;20026;-84
2023/08/20 12:36:20;;;;;;;7.35;2.08;;;24.00;99.90;;;;;;5017560;28;20036;-82
2023/08/20 12:38:46;;;;;;;4.60;1.30;;;24.10;99.90;;;;;;5023527;28;20097;-82
2023/08/20 12:41:11;;;;;;;5.13;1.85;;;24.20;99.90;;;;;;5016537;28;20032;-84
2023/08/20 12:43:37;;;;;;;4.03;1.70;;;24.10;99.90;;;;;;5024135;28;20051;-83
2023/08/20 12:46:03;;;;;;;2.88;1.67;;;24.10;99.90;;;;;;5016642;28;20030;-82